Detalii statie AGRICHIM STEFAN CEL MARE [0000198F]

Toti senzorii

Date Temperatura solului [C]Precipitatii [mm]Voltaj baterie [mV]HC Air temperature [C]HC Relative humidity [%]Punctul de roua [C]
medieminmaxsumaultimamedieminmaxmediemediemin
2019-10-19 23:00:00 14.9 14.8 15.2 0 6854 12.95 12.71 13.26 0 0 0
2019-10-20 00:00:00 14.7 14.6 15 0 6844 12.53 12.34 12.64 0 0 0
2019-10-20 01:00:00 14.6 14.5 14.7 0 6816 12.22 12.08 12.31 0 0 0
2019-10-20 02:00:00 14.5 14.4 14.6 0 6826 11.65 11.49 12.01 0 0 0
2019-10-20 03:00:00 14.4 14.3 14.7 0 6806 11.48 11.31 11.69 0 0 0
2019-10-20 04:00:00 14.2 14.1 14.4 0 6806 11.41 11.37 11.47 0 0 0
2019-10-20 05:00:00 14.1 14 14.2 0 6806 11.11 10.91 11.37 0 0 0
2019-10-20 06:00:00 13.9 13.9 14.1 0 6786 10.85 10.66 11.09 0 0 0
2019-10-20 07:00:00 13.9 13.9 14 0 6786 11 10.78 11.19 0 0 0
2019-10-20 08:00:00 13.8 13.7 13.9 0 6806 11.99 11.15 13.09 0 0 0
2019-10-20 09:00:00 13.7 13.7 13.9 0.2 6884 14.19 13.3 14.98 0 0 0
2019-10-20 10:00:00 13.7 13.7 13.9 0 7070 15.59 15.01 16.38 0 0 0
2019-10-20 11:00:00 13.8 13.8 14 0 7246 18.27 16.5 20.03 0 0 0
2019-10-20 12:00:00 14.1 13.9 14.3 0 7236 21.27 20.45 21.72 0 0 0
2019-10-20 13:00:00 14.6 14.4 15 0 7274 22.47 21.22 23.6 0 0 0
2019-10-20 14:00:00 15.1 14.8 15.6 0 7274 24.12 23.03 24.74 0 0 0
2019-10-20 15:00:00 15.9 15.6 16.2 0 7226 24.02 23.87 24.72 0 0 0
2019-10-20 16:00:00 16.2 16.1 16.4 0 7138 23.75 23.49 23.92 0 0 0
2019-10-20 17:00:00 16.3 16.3 16.4 0 7020 22.67 21.72 23.41 0 0 0
2019-10-20 18:00:00 16.3 16.2 16.4 0 6982 19.95 18.74 21.49 0 0 0
2019-10-20 19:00:00 16.2 16.1 16.4 0 6884 17.69 16.9 18.56 0 0 0
2019-10-20 20:00:00 16 16 16.1 0 6864 16.07 15.51 16.75 0 0 0
2019-10-20 21:00:00 15.9 15.8 16 0 6844 14.94 14.55 15.4 0 0 0
2019-10-20 22:00:00 15.7 15.6 15.9 0 6834 14.15 13.88 14.5 0 0 0
2019-10-20 23:00:00 15.5 15.5 15.7 0 6826 13.69 13.36 13.9 0 0 0
2019-10-21 00:00:00 15.3 15.1 15.6 0 6816 13.12 12.99 13.34 0 0 0
2019-10-21 01:00:00 15.1 14.9 15.4 0 6796 12.65 12.45 12.94 0 0 0
2019-10-21 02:00:00 14.9 14.8 15.2 0 6806 12.32 12.14 12.46 0 0 0
2019-10-21 03:00:00 14.7 14.6 14.8 0 6796 11.59 11.05 11.91 0 0 0
2019-10-21 04:00:00 14.5 14.5 14.7 0 6786 11.38 10.82 12.13 0 0 0
2019-10-21 05:00:00 14.5 14.4 14.6 0 6786 12.29 12.21 12.4 0 0 0
2019-10-21 06:00:00 14.4 14.4 14.5 0 6786 12.26 12.02 12.43 0 0 0
2019-10-21 07:00:00 14.4 14.2 14.5 0 6776 12.06 12 12.15 0 0 0
2019-10-21 08:00:00 14.4 14.2 14.8 0 6806 12.52 12.18 12.95 0 0 0
2019-10-21 09:00:00 14.3 14.2 14.5 0 6884 13.45 13.02 13.9 0 0 0
2019-10-21 10:00:00 14.4 14.4 14.6 0 7070 14.55 14.04 15.15 0 0 0
2019-10-21 11:00:00 14.6 14.5 15 0 7246 16.54 15.42 17.63 0 0 0
2019-10-21 12:00:00 14.9 14.8 15.3 0 7236 19.88 17.77 21.64 0 0 0
2019-10-21 13:00:00 15.5 15.2 15.8 0 7246 23.47 21.68 24.7 0 0 0
2019-10-21 14:00:00 16 15.7 16.3 0 7274 24.92 24 25.4 0 0 0